createdAt,value
2023-09-28T00:00:16.506Z,16.62
2023-09-28T00:02:44.827Z,16.55
2023-09-28T00:05:12.024Z,16.51
2023-09-28T00:07:39.642Z,16.45
2023-09-28T00:10:09.581Z,16.41
2023-09-28T00:12:36.629Z,16.42
2023-09-28T00:15:05.354Z,16.44
2023-09-28T00:17:35.198Z,16.40
2023-09-28T00:20:01.747Z,16.50
2023-09-28T00:22:28.437Z,16.50
2023-09-28T00:24:55.690Z,16.47
2023-09-28T00:27:22.390Z,16.47
2023-09-28T00:29:49.494Z,16.45
2023-09-28T00:32:23.823Z,16.41
2023-09-28T00:34:51.887Z,16.41
2023-09-28T00:37:18.824Z,16.39
2023-09-28T00:39:45.505Z,16.34
2023-09-28T00:42:12.602Z,16.41
2023-09-28T00:44:40.579Z,16.39
2023-09-28T00:47:07.509Z,16.38
2023-09-28T00:49:35.648Z,16.39
2023-09-28T00:52:04.544Z,16.33
2023-09-28T00:54:32.528Z,16.27
2023-09-28T00:56:59.364Z,16.26
2023-09-28T00:59:26.463Z,16.25
2023-09-28T01:01:53.419Z,16.25
2023-09-28T01:04:21.044Z,16.26
2023-09-28T01:06:47.750Z,16.22
2023-09-28T01:09:19.826Z,16.22
2023-09-28T01:11:46.774Z,16.16
2023-09-28T01:14:14.164Z,16.12
2023-09-28T01:16:41.816Z,16.13
2023-09-28T01:19:09.998Z,16.10
2023-09-28T01:21:37.210Z,16.08
2023-09-28T01:24:06.405Z,16.03
2023-09-28T01:26:34.815Z,16.03
2023-09-28T01:29:02.344Z,16.04
2023-09-28T01:31:29.041Z,16.04
2023-09-28T01:33:57.394Z,16.04
2023-09-28T01:36:24.275Z,15.98
2023-09-28T01:38:58.974Z,15.94
2023-09-28T01:41:29.207Z,15.89
2023-09-28T01:43:56.215Z,15.87
2023-09-28T01:46:23.363Z,15.88
2023-09-28T01:48:50.618Z,15.85
2023-09-28T01:51:18.069Z,15.83
2023-09-28T01:53:44.678Z,15.83
2023-09-28T01:56:11.329Z,15.85
2023-09-28T01:58:39.596Z,15.84
2023-09-28T02:01:06.504Z,15.81
2023-09-28T02:03:33.901Z,15.82
2023-09-28T02:06:02.750Z,15.81
2023-09-28T02:08:30.103Z,15.82
2023-09-28T02:10:58.427Z,15.80
2023-09-28T02:13:25.151Z,15.78
2023-09-28T02:15:54.901Z,15.73
2023-09-28T02:18:22.056Z,15.75
2023-09-28T02:20:48.658Z,15.77
2023-09-28T02:23:17.536Z,15.67
2023-09-28T02:25:45.709Z,15.68
2023-09-28T02:28:13.357Z,15.68
2023-09-28T02:30:40.072Z,15.67
2023-09-28T02:33:08.980Z,15.63
2023-09-28T02:35:36.771Z,15.65
2023-09-28T02:38:03.706Z,15.59
2023-09-28T02:40:32.170Z,15.60
2023-09-28T02:42:59.705Z,15.60
2023-09-28T02:45:26.297Z,15.60
2023-09-28T02:47:53.150Z,15.61
2023-09-28T02:50:22.938Z,15.63
2023-09-28T02:52:49.678Z,15.65
2023-09-28T02:55:17.733Z,15.54
2023-09-28T02:57:44.396Z,15.50
2023-09-28T03:00:12.800Z,15.53
2023-09-28T03:02:39.409Z,15.47
2023-09-28T03:05:06.909Z,15.40
2023-09-28T03:07:36.558Z,15.39
2023-09-28T03:10:04.636Z,15.42
2023-09-28T03:12:33.395Z,15.37
2023-09-28T03:15:00.591Z,15.34
2023-09-28T03:17:28.168Z,15.31
2023-09-28T03:19:55.639Z,15.33
2023-09-28T03:22:22.546Z,15.33
2023-09-28T03:24:50.909Z,15.29
2023-09-28T03:27:17.857Z,15.23
2023-09-28T03:29:49.103Z,15.21
2023-09-28T03:32:16.072Z,15.17
2023-09-28T03:34:43.208Z,15.21
2023-09-28T03:37:09.806Z,15.16
2023-09-28T03:39:36.636Z,15.12
2023-09-28T03:42:04.774Z,15.06
2023-09-28T03:44:31.319Z,15.07
2023-09-28T03:46:57.884Z,15.05
2023-09-28T03:49:24.584Z,15.04
2023-09-28T03:51:52.964Z,15.04
2023-09-28T03:54:19.786Z,15.00
2023-09-28T03:56:46.664Z,14.99
2023-09-28T03:59:15.398Z,14.99
2023-09-28T04:01:42.300Z,14.97
2023-09-28T04:04:09.848Z,14.91
2023-09-28T04:06:37.855Z,14.92
2023-09-28T04:09:04.813Z,14.90
2023-09-28T04:11:31.897Z,14.77
2023-09-28T04:13:59.758Z,14.86
2023-09-28T04:16:30.338Z,14.84
2023-09-28T04:19:01.905Z,14.88
2023-09-28T04:21:28.713Z,14.87
2023-09-28T04:23:56.249Z,14.83
2023-09-28T04:26:23.137Z,14.80
2023-09-28T04:28:51.612Z,14.79
2023-09-28T04:31:20.080Z,14.80
2023-09-28T04:33:51.565Z,14.82
2023-09-28T04:36:19.795Z,14.80
2023-09-28T04:38:46.892Z,14.79
2023-09-28T04:41:13.908Z,14.76
2023-09-28T04:43:45.536Z,14.73
2023-09-28T04:46:14.188Z,14.76
2023-09-28T04:48:41.190Z,14.71
2023-09-28T04:51:10.832Z,14.69
2023-09-28T04:53:38.481Z,14.63
2023-09-28T04:56:13.820Z,14.61
2023-09-28T04:58:41.101Z,14.71
2023-09-28T05:01:09.837Z,14.69
2023-09-28T05:03:39.295Z,14.75
2023-09-28T05:06:07.145Z,14.67
2023-09-28T05:08:38.857Z,14.56
2023-09-28T05:11:12.890Z,14.58
2023-09-28T05:13:42.368Z,14.53
2023-09-28T05:16:09.488Z,14.48
2023-09-28T05:18:38.197Z,14.48
2023-09-28T05:21:05.304Z,14.44
2023-09-28T05:23:38.995Z,14.41
2023-09-28T05:26:06.771Z,14.50
2023-09-28T05:28:40.291Z,14.53
2023-09-28T05:31:07.148Z,14.57
2023-09-28T05:33:34.624Z,14.58
2023-09-28T05:36:02.449Z,14.59
2023-09-28T05:38:29.445Z,14.67
2023-09-28T05:40:57.904Z,14.67
2023-09-28T05:43:26.086Z,14.63
2023-09-28T05:45:53.627Z,14.66
2023-09-28T05:48:20.688Z,14.70
2023-09-28T05:50:47.648Z,14.79
2023-09-28T05:53:18.621Z,14.81
2023-09-28T05:55:48.386Z,14.90
2023-09-28T05:58:20.610Z,15.00
2023-09-28T06:00:49.016Z,15.16
2023-09-28T06:03:16.104Z,15.23
2023-09-28T06:05:45.329Z,15.35
2023-09-28T06:08:24.838Z,15.46
2023-09-28T06:11:06.652Z,-142.59
2023-09-28T06:14:04.861Z,-142.59
2023-09-28T06:16:40.659Z,-142.59
2023-09-28T06:19:14.728Z,-142.59
2023-09-28T06:21:42.420Z,-142.59
2023-09-28T06:24:12.050Z,-142.59
2023-09-28T06:26:43.786Z,-142.59
2023-09-28T06:29:16.247Z,-142.59
2023-09-28T06:31:44.891Z,-142.59
2023-09-28T06:34:12.820Z,-142.59
2023-09-28T06:36:44.855Z,-142.59
2023-09-28T06:39:11.624Z,-142.59
2023-09-28T06:41:39.377Z,-142.59
2023-09-28T06:44:07.671Z,-142.59
2023-09-28T06:46:45.172Z,-142.59
2023-09-28T06:49:13.086Z,-142.59
2023-09-28T06:51:43.672Z,-142.59
2023-09-28T06:54:12.518Z,-142.59
2023-09-28T06:56:43.694Z,-142.59
2023-09-28T06:59:10.579Z,-142.59
2023-09-28T07:01:41.585Z,-142.59
2023-09-28T07:04:08.381Z,-142.59
2023-09-28T07:06:35.246Z,-142.59
2023-09-28T07:09:02.246Z,-142.59
2023-09-28T07:11:30.546Z,-142.59
2023-09-28T07:14:00.158Z,-142.59
2023-09-28T07:16:28.021Z,-142.59
2023-09-28T07:18:57.773Z,-142.59
2023-09-28T07:21:24.851Z,-142.59
2023-09-28T07:23:54.756Z,-142.59
2023-09-28T07:26:26.946Z,-142.59
2023-09-28T07:28:53.855Z,-142.59
2023-09-28T07:31:21.300Z,-142.59
2023-09-28T07:33:50.028Z,-142.59
2023-09-28T07:36:26.277Z,-142.59
2023-09-28T07:38:56.923Z,-142.59
2023-09-28T07:41:24.980Z,-142.59
2023-09-28T07:43:52.087Z,-142.59
2023-09-28T07:46:18.924Z,-142.59
2023-09-28T07:48:46.337Z,-142.59
2023-09-28T07:51:13.160Z,-142.59
2023-09-28T07:53:41.817Z,-142.59
2023-09-28T07:56:08.542Z,-142.59
2023-09-28T07:58:35.608Z,-142.59
2023-09-28T08:01:04.260Z,-142.59
2023-09-28T08:03:31.247Z,-142.59
2023-09-28T08:05:59.236Z,-142.59
2023-09-28T08:08:26.995Z,-142.59
2023-09-28T08:10:55.539Z,-142.59
2023-09-28T08:13:22.927Z,-142.59
2023-09-28T08:15:54.642Z,-142.59
2023-09-28T08:18:23.828Z,-142.59
2023-09-28T08:21:07.754Z,-142.59
2023-09-28T08:23:42.040Z,-142.59
2023-09-28T08:26:12.240Z,-142.59
2023-09-28T08:28:39.202Z,-142.59
2023-09-28T08:31:09.330Z,-142.59
2023-09-28T08:33:36.974Z,-142.59
2023-09-28T08:36:07.519Z,-142.59
2023-09-28T08:38:36.881Z,-142.59
2023-09-28T08:41:07.377Z,-142.59
2023-09-28T08:43:42.909Z,-142.59
2023-09-28T08:46:14.123Z,-142.59
2023-09-28T08:51:35.956Z,-142.59
2023-09-28T08:54:03.467Z,-142.59
2023-09-28T08:56:35.727Z,-142.59
2023-09-28T08:59:09.245Z,-142.59
2023-09-28T09:01:36.644Z,-142.59
2023-09-28T09:04:09.628Z,-142.59
2023-09-28T09:06:38.147Z,-142.59
2023-09-28T09:09:06.255Z,-142.59
2023-09-28T09:11:36.501Z,-142.59
2023-09-28T09:14:04.169Z,-142.59
2023-09-28T09:16:40.345Z,-142.59
2023-09-28T09:19:07.237Z,-142.59
2023-09-28T09:21:40.799Z,-142.59
2023-09-28T09:24:09.941Z,-142.59
2023-09-28T09:26:41.166Z,-142.59
2023-09-28T09:29:08.334Z,-142.59
2023-09-28T09:31:41.438Z,-142.59
2023-09-28T09:34:17.570Z,-142.59
2023-09-28T09:36:54.968Z,-142.59
2023-09-28T09:39:24.134Z,-142.59
2023-09-28T09:41:52.663Z,-142.59
2023-09-28T09:44:23.302Z,-142.59
2023-09-28T09:46:53.523Z,-142.59
2023-09-28T09:49:26.330Z,-142.59
2023-09-28T09:51:56.665Z,-142.59
2023-09-28T09:54:26.361Z,-142.59
2023-09-28T09:56:54.208Z,-142.59
2023-09-28T09:59:22.575Z,-142.59
2023-09-28T10:01:55.999Z,-142.59
2023-09-28T10:04:25.660Z,-142.59
2023-09-28T10:06:53.823Z,-142.59
2023-09-28T10:09:21.903Z,-142.59
2023-09-28T10:11:52.783Z,-142.59
2023-09-28T10:14:22.222Z,-142.59
2023-09-28T10:16:55.204Z,-142.59
2023-09-28T10:19:24.784Z,-142.59
2023-09-28T10:21:51.972Z,-142.59
2023-09-28T10:24:32.155Z,-142.59
2023-09-28T10:27:07.894Z,-142.59
2023-09-28T10:29:34.951Z,-142.59
2023-09-28T10:32:16.136Z,-142.59
2023-09-28T10:34:44.261Z,-142.59
2023-09-28T10:37:18.555Z,-142.59
2023-09-28T10:39:49.509Z,-142.59
2023-09-28T10:42:21.091Z,-142.59
2023-09-28T10:44:51.702Z,-142.59
2023-09-28T10:47:22.804Z,-142.59
2023-09-28T10:49:58.609Z,-142.59
2023-09-28T10:52:25.584Z,-142.59
2023-09-28T10:54:53.289Z,-142.59
2023-09-28T10:57:29.415Z,-142.59
2023-09-28T10:59:59.755Z,-142.59
2023-09-28T11:02:31.605Z,-142.59
2023-09-28T11:05:00.425Z,-142.59
2023-09-28T11:07:32.232Z,-142.59
2023-09-28T11:09:59.796Z,-142.59
2023-09-28T11:12:29.491Z,-142.59
2023-09-28T11:14:56.850Z,-142.59
2023-09-28T11:17:25.245Z,-142.59
2023-09-28T11:19:55.164Z,-142.59
2023-09-28T11:22:23.290Z,-142.59
2023-09-28T11:24:51.027Z,-142.59
2023-09-28T11:27:18.579Z,-142.59
2023-09-28T11:29:45.428Z,-142.59
2023-09-28T11:32:14.024Z,-142.59
2023-09-28T11:34:41.364Z,-142.59
2023-09-28T11:37:16.590Z,-142.59
2023-09-28T11:42:27.045Z,-142.59
2023-09-28T11:44:59.059Z,-142.59
2023-09-28T11:47:28.414Z,-142.59
2023-09-28T11:49:58.129Z,-142.59
2023-09-28T11:52:30.082Z,-142.59
2023-09-28T11:54:56.955Z,-142.59
2023-09-28T11:57:23.838Z,-142.59
2023-09-28T11:59:51.863Z,-142.59
2023-09-28T12:02:26.392Z,-142.59
2023-09-28T12:04:53.660Z,-142.59
2023-09-28T12:07:25.404Z,-142.59
2023-09-28T12:10:03.701Z,-142.59
2023-09-28T12:12:44.227Z,-142.59
2023-09-28T12:15:14.369Z,-142.59
2023-09-28T12:17:43.673Z,-142.59
2023-09-28T12:20:14.664Z,-142.59
2023-09-28T12:22:45.472Z,-142.59
2023-09-28T12:25:16.971Z,-142.59
2023-09-28T12:27:49.308Z,-142.59
2023-09-28T12:30:17.884Z,-142.59
2023-09-28T12:32:44.918Z,-142.59
2023-09-28T12:35:11.747Z,-142.59
2023-09-28T12:37:39.174Z,-142.59
2023-09-28T12:40:09.857Z,-142.59
2023-09-28T12:42:41.601Z,-142.59
2023-09-28T12:45:09.472Z,-142.59
2023-09-28T12:47:42.129Z,-142.59
2023-09-28T12:50:09.686Z,-142.59
2023-09-28T12:52:37.312Z,-142.59
2023-09-28T12:55:11.981Z,-142.59
2023-09-28T12:57:59.402Z,-142.59
2023-09-28T13:00:28.572Z,-142.59
2023-09-28T13:02:56.217Z,-142.59
2023-09-28T13:05:39.229Z,-142.59
2023-09-28T13:08:12.476Z,-142.59
2023-09-28T13:14:07.666Z,-142.59
2023-09-28T13:19:47.914Z,-142.59
2023-09-28T13:30:42.077Z,-142.59
2023-09-28T13:33:08.948Z,-142.59
2023-09-28T13:35:37.782Z,-142.59
2023-09-28T13:38:13.390Z,-142.59
2023-09-28T13:40:44.840Z,-142.59
2023-09-28T13:43:16.470Z,-142.59
2023-09-28T13:48:34.280Z,-142.59
2023-09-28T13:51:03.588Z,-142.59
2023-09-28T13:53:40.170Z,-142.59
2023-09-28T13:56:10.761Z,-142.59
2023-09-28T13:58:42.243Z,-142.59
2023-09-28T14:01:12.636Z,-142.59
2023-09-28T14:03:40.411Z,-142.59
2023-09-28T14:06:10.929Z,-142.59
2023-09-28T14:08:42.166Z,-142.59
2023-09-28T14:13:54.107Z,-142.59
2023-09-28T14:16:28.798Z,-142.59
2023-09-28T14:19:01.317Z,-142.59
2023-09-28T14:25:04.976Z,-142.59
2023-09-28T14:27:35.762Z,-142.59
2023-09-28T14:30:31.819Z,-142.59
2023-09-28T14:35:40.484Z,-142.59
2023-09-28T14:38:13.715Z,-142.59
2023-09-28T14:40:43.644Z,-142.59
2023-09-28T14:43:10.417Z,-142.59
2023-09-28T14:45:37.134Z,-142.59
2023-09-28T14:48:05.838Z,-142.59
2023-09-28T14:50:32.918Z,-142.59
2023-09-28T14:53:01.816Z,-142.59
2023-09-28T14:55:28.842Z,-142.59
2023-09-28T14:57:58.566Z,-142.59
2023-09-28T15:00:26.120Z,-142.59
2023-09-28T15:02:53.742Z,-142.59
2023-09-28T15:05:23.408Z,-142.59
2023-09-28T15:07:50.604Z,-142.59
2023-09-28T15:10:17.761Z,-142.59
2023-09-28T15:12:44.374Z,-142.59
2023-09-28T15:15:13.632Z,-142.59
2023-09-28T15:17:40.774Z,-142.59
2023-09-28T15:20:08.883Z,-142.59
2023-09-28T15:22:35.677Z,-142.59
2023-09-28T15:25:02.836Z,-142.59
2023-09-28T15:27:31.042Z,-142.59
2023-09-28T15:29:59.413Z,-142.59
2023-09-28T15:35:13.029Z,-142.59
2023-09-28T15:37:42.383Z,-142.59
2023-09-28T15:40:09.731Z,-142.59
2023-09-28T15:42:38.424Z,-142.59
2023-09-28T15:45:09.359Z,-142.59
2023-09-28T15:47:40.246Z,-142.59
2023-09-28T15:50:09.505Z,-142.59
2023-09-28T15:52:40.041Z,-142.59
2023-09-28T15:55:10.469Z,-142.59
2023-09-28T15:57:39.053Z,-142.59
2023-09-28T16:00:08.620Z,-142.59
2023-09-28T16:02:41.119Z,-142.59
2023-09-28T16:05:09.901Z,-142.59
2023-09-28T16:07:36.792Z,-142.59
2023-09-28T16:10:03.809Z,-142.59
2023-09-28T16:12:34.423Z,-142.59
2023-09-28T16:15:01.425Z,-142.59
2023-09-28T16:17:28.328Z,-142.59
2023-09-28T16:20:07.421Z,-142.59
2023-09-28T16:22:42.460Z,-142.59
2023-09-28T16:25:09.902Z,-142.59
2023-09-28T16:27:36.684Z,-142.59
2023-09-28T16:30:04.545Z,-142.59
2023-09-28T16:32:31.600Z,-142.59
2023-09-28T16:35:02.291Z,-142.59
2023-09-28T16:37:29.217Z,-142.59
2023-09-28T16:39:57.343Z,-142.59
2023-09-28T16:42:24.150Z,-142.59
2023-09-28T16:44:51.594Z,-142.59
2023-09-28T16:47:18.280Z,-142.59
2023-09-28T16:49:58.066Z,-142.59
2023-09-28T16:53:12.404Z,-142.59
2023-09-28T16:55:39.937Z,-142.59
2023-09-28T16:58:07.370Z,-142.59
2023-09-28T17:00:36.074Z,-142.59
2023-09-28T17:03:02.949Z,-142.59
2023-09-28T17:05:33.050Z,-142.59
2023-09-28T17:07:59.854Z,-142.59
2023-09-28T17:10:29.213Z,-142.59
2023-09-28T17:12:56.088Z,-142.59
2023-09-28T17:15:23.036Z,-142.59
2023-09-28T17:17:49.902Z,-142.59
2023-09-28T17:20:19.815Z,-142.59
2023-09-28T17:22:51.029Z,-142.59
2023-09-28T17:25:19.155Z,-142.59
2023-09-28T17:27:47.508Z,-142.59
2023-09-28T17:30:14.600Z,-142.59
2023-09-28T17:32:41.620Z,-142.59
2023-09-28T17:35:12.795Z,-142.59
2023-09-28T17:37:41.043Z,-142.59
2023-09-28T17:40:10.032Z,-142.59
2023-09-28T17:42:37.581Z,-142.59
2023-09-28T17:45:11.372Z,-142.59
2023-09-28T17:47:43.303Z,-142.59
2023-09-28T17:50:12.622Z,-142.59
2023-09-28T17:52:40.868Z,-142.59
2023-09-28T17:55:10.572Z,-142.59
2023-09-28T17:57:38.535Z,-142.59
2023-09-28T18:00:08.570Z,-142.59
2023-09-28T18:02:40.644Z,-142.59
2023-09-28T18:05:08.220Z,-142.59
2023-09-28T18:07:34.895Z,-142.59
2023-09-28T18:10:02.029Z,-142.59
2023-09-28T18:12:29.672Z,-142.59
2023-09-28T18:14:56.349Z,-142.59
2023-09-28T18:17:23.446Z,-142.59
2023-09-28T18:19:54.572Z,-142.59
2023-09-28T18:22:21.250Z,-142.59
2023-09-28T18:24:47.888Z,-142.59
2023-09-28T18:27:15.088Z,-142.59
2023-09-28T18:29:43.176Z,-142.59
2023-09-28T18:32:10.166Z,-142.59
2023-09-28T18:34:39.546Z,-142.59
2023-09-28T18:37:08.512Z,-142.59
2023-09-28T18:39:35.253Z,-142.59
2023-09-28T18:42:04.811Z,-142.59
2023-09-28T18:44:32.078Z,-142.59
2023-09-28T18:50:06.162Z,-142.59
2023-09-28T18:52:35.088Z,-142.59
2023-09-28T18:55:05.846Z,-142.59
2023-09-28T18:57:32.932Z,-142.59
2023-09-28T18:59:59.701Z,-142.59
2023-09-28T19:02:26.400Z,-142.59
2023-09-28T19:04:53.449Z,-142.59
2023-09-28T19:07:20.362Z,-142.59
2023-09-28T19:09:49.030Z,-142.59
2023-09-28T19:12:15.737Z,-142.59
2023-09-28T19:14:44.255Z,-142.59
2023-09-28T19:17:11.435Z,-142.59
2023-09-28T19:19:39.136Z,-142.59
2023-09-28T19:22:06.138Z,-142.59
2023-09-28T19:24:33.209Z,-142.59
2023-09-28T19:27:01.738Z,-142.59
2023-09-28T19:29:31.477Z,-142.59
2023-09-28T19:31:58.175Z,-142.59
2023-09-28T19:34:26.264Z,-142.59
2023-09-28T19:36:57.441Z,-142.59
2023-09-28T19:39:24.133Z,-142.59
2023-09-28T19:41:51.068Z,-142.59
2023-09-28T19:44:19.484Z,-142.59
2023-09-28T19:46:46.353Z,-142.59
2023-09-28T19:49:13.142Z,-142.59
2023-09-28T19:51:41.723Z,-142.59
2023-09-28T19:54:08.910Z,-142.59
2023-09-28T19:56:35.738Z,-142.59
2023-09-28T19:59:02.603Z,-142.59
2023-09-28T20:01:34.214Z,-142.59
2023-09-28T20:04:01.767Z,-142.59
2023-09-28T20:10:23.353Z,-142.59
2023-09-28T20:12:50.255Z,-142.59
2023-09-28T20:15:17.215Z,-142.59
2023-09-28T20:17:45.536Z,-142.59
2023-09-28T20:20:13.717Z,-142.59
2023-09-28T20:25:10.012Z,-142.59
2023-09-28T20:27:37.819Z,-142.59
2023-09-28T20:30:05.792Z,-142.59
2023-09-28T20:32:33.086Z,-142.59
2023-09-28T20:35:01.908Z,-142.59
2023-09-28T20:37:28.778Z,-142.59
2023-09-28T20:39:55.417Z,-142.59
2023-09-28T20:42:21.998Z,-142.59
2023-09-28T20:44:48.776Z,-142.59
2023-09-28T20:47:16.021Z,-142.59
2023-09-28T20:49:42.712Z,-142.59
2023-09-28T20:52:11.141Z,-142.59
2023-09-28T20:54:37.744Z,-142.59
2023-09-28T20:57:04.410Z,-142.59
2023-09-28T20:59:31.361Z,-142.59
2023-09-28T21:01:58.090Z,-142.59
2023-09-28T21:04:25.487Z,-142.59
2023-09-28T21:06:55.482Z,-142.59
2023-09-28T21:09:24.632Z,-142.59
2023-09-28T21:11:51.849Z,-142.59
2023-09-28T21:14:18.876Z,-142.59
2023-09-28T21:16:56.454Z,-142.59
2023-09-28T21:19:25.440Z,-142.59
2023-09-28T21:21:52.600Z,-142.59
2023-09-28T21:24:25.198Z,-142.59
2023-09-28T21:27:01.252Z,-142.59
2023-09-28T21:29:28.607Z,-142.59
2023-09-28T21:31:55.453Z,-142.59
2023-09-28T21:34:22.466Z,-142.59
2023-09-28T21:36:52.490Z,-142.59
2023-09-28T21:39:20.619Z,-142.59
2023-09-28T21:41:49.411Z,-142.59
2023-09-28T21:44:17.827Z,-142.59
2023-09-28T21:46:47.092Z,-142.59
2023-09-28T21:49:15.261Z,-142.59
2023-09-28T21:51:42.281Z,-142.59
2023-09-28T21:54:09.190Z,-142.59
2023-09-28T21:56:37.681Z,-142.59
2023-09-28T21:59:10.172Z,-142.59
2023-09-28T22:01:41.409Z,-142.59
2023-09-28T22:04:08.089Z,-142.59
2023-09-28T22:06:35.812Z,-142.59
2023-09-28T22:09:03.178Z,-142.59
2023-09-28T22:11:29.879Z,-142.59
2023-09-28T22:13:56.599Z,-142.59
2023-09-28T22:16:23.294Z,-142.59
2023-09-28T22:18:51.358Z,-142.59
2023-09-28T22:21:20.155Z,-142.59
2023-09-28T22:23:48.342Z,-142.59
2023-09-28T22:26:15.087Z,-142.59
2023-09-28T22:28:42.066Z,-142.59
2023-09-28T22:31:08.732Z,-142.59
2023-09-28T22:33:36.568Z,-142.59
2023-09-28T22:36:07.010Z,-142.59
2023-09-28T22:38:34.986Z,-142.59
2023-09-28T22:41:02.086Z,-142.59
2023-09-28T22:43:31.249Z,-142.59
2023-09-28T22:45:58.183Z,-142.59
2023-09-28T22:48:25.491Z,-142.59
2023-09-28T22:50:52.696Z,-142.59
2023-09-28T22:53:21.055Z,-142.59
2023-09-28T22:55:47.818Z,-142.59
2023-09-28T22:58:15.980Z,-142.59
2023-09-28T23:00:42.803Z,-142.59
2023-09-28T23:03:09.899Z,-142.59
2023-09-28T23:05:36.717Z,-142.59
2023-09-28T23:08:05.538Z,-142.59
2023-09-28T23:10:35.119Z,-142.59
2023-09-28T23:13:02.879Z,-142.59
2023-09-28T23:15:29.910Z,-142.59
2023-09-28T23:17:57.827Z,-142.59
2023-09-28T23:20:24.953Z,-142.59
2023-09-28T23:22:52.217Z,-142.59
2023-09-28T23:25:20.234Z,-142.59
2023-09-28T23:27:49.917Z,-142.59
2023-09-28T23:30:20.781Z,-142.59
2023-09-28T23:32:51.410Z,-142.59
2023-09-28T23:35:19.440Z,-142.59
2023-09-28T23:37:49.073Z,-142.59
2023-09-28T23:40:16.072Z,-142.59
2023-09-28T23:42:44.452Z,-142.59
2023-09-28T23:45:13.133Z,-142.59
2023-09-28T23:47:40.405Z,-142.59
2023-09-28T23:50:08.273Z,-142.59
2023-09-28T23:52:34.887Z,-142.59
2023-09-28T23:55:01.617Z,-142.59
2023-09-28T23:57:28.224Z,-142.59
2023-09-28T23:59:55.770Z,-142.59
